createdAt,value
2023-02-09T00:01:20.905Z,-0.90
2023-02-09T00:03:48.402Z,-0.90
2023-02-09T00:06:18.751Z,-0.90
2023-02-09T00:08:46.639Z,-0.90
2023-02-09T00:11:47.342Z,-0.80
2023-02-09T00:14:18.214Z,-0.90
2023-02-09T00:16:47.846Z,-0.90
2023-02-09T00:19:15.651Z,-0.90
2023-02-09T00:21:43.323Z,-0.90
2023-02-09T00:24:13.578Z,-0.90
2023-02-09T00:26:41.901Z,-0.90
2023-02-09T00:29:09.959Z,-0.30
2023-02-09T00:31:38.372Z,-0.90
2023-02-09T00:34:06.399Z,-0.90
2023-02-09T00:36:34.051Z,-0.90
2023-02-09T00:39:01.943Z,-0.90
2023-02-09T00:41:48.299Z,-0.80
2023-02-09T00:44:15.740Z,-0.80
2023-02-09T00:46:43.435Z,-0.80
2023-02-09T00:49:11.039Z,-0.70
2023-02-09T00:51:38.502Z,-0.80
2023-02-09T00:54:05.996Z,-0.80
2023-02-09T00:56:33.524Z,-0.70
2023-02-09T00:59:01.197Z,-0.70
2023-02-09T01:01:28.791Z,-0.80
2023-02-09T01:03:56.910Z,-0.70
2023-02-09T01:06:24.368Z,-0.70
2023-02-09T01:08:51.835Z,-0.70
2023-02-09T01:11:20.106Z,-0.80
2023-02-09T01:13:49.044Z,-0.80
2023-02-09T01:16:17.824Z,-0.80
2023-02-09T01:18:45.769Z,-0.80
2023-02-09T01:21:19.301Z,-0.80
2023-02-09T01:23:47.751Z,-0.80
2023-02-09T01:26:18.088Z,-0.80
2023-02-09T01:28:50.517Z,-0.80
2023-02-09T01:31:22.216Z,-0.70
2023-02-09T01:33:51.784Z,-0.70
2023-02-09T01:36:19.984Z,-0.60
2023-02-09T01:38:51.083Z,-0.60
2023-02-09T01:41:18.517Z,-0.50
2023-02-09T01:43:50.590Z,-0.50
2023-02-09T01:46:20.133Z,-0.50
2023-02-09T01:48:51.109Z,-0.50
2023-02-09T01:51:20.063Z,-0.50
2023-02-09T01:53:47.916Z,-0.50
2023-02-09T01:56:21.428Z,-0.50
2023-02-09T01:58:49.693Z,-0.50
2023-02-09T02:01:17.900Z,-0.50
2023-02-09T02:03:45.896Z,-0.50
2023-02-09T02:06:15.142Z,-0.50
2023-02-09T02:08:46.820Z,-0.50
2023-02-09T02:11:15.326Z,-0.40
2023-02-09T02:13:43.616Z,-0.40
2023-02-09T02:16:30.032Z,-0.40
2023-02-09T02:19:20.829Z,-0.30
2023-02-09T02:22:12.752Z,-0.30
2023-02-09T02:25:01.804Z,-0.30
2023-02-09T02:27:57.421Z,-0.30
2023-02-09T02:30:38.177Z,-0.30
2023-02-09T02:33:14.800Z,-0.30
2023-02-09T02:35:55.352Z,-0.30
2023-02-09T02:38:37.250Z,-0.20
2023-02-09T02:41:19.176Z,-0.20
2023-02-09T02:44:02.596Z,-0.10
2023-02-09T02:46:35.464Z,-0.10
2023-02-09T02:49:14.847Z,0.00
2023-02-09T02:51:45.377Z,0.00
2023-02-09T02:54:28.299Z,0.00
2023-02-09T02:57:03.881Z,0.00
2023-02-09T02:59:35.357Z,0.10
2023-02-09T03:02:08.158Z,0.10
2023-02-09T03:04:38.135Z,0.00
2023-02-09T03:07:08.929Z,0.10
2023-02-09T03:09:36.520Z,0.10
2023-02-09T03:12:18.688Z,0.10
2023-02-09T03:15:04.226Z,0.00
2023-02-09T03:17:40.393Z,0.00
2023-02-09T03:20:38.156Z,0.00
2023-02-09T03:23:08.606Z,0.00
2023-02-09T03:25:43.506Z,0.00
2023-02-09T03:28:25.743Z,0.00
2023-02-09T03:30:54.156Z,0.00
2023-02-09T03:33:33.156Z,0.00
2023-02-09T03:36:03.062Z,0.00
2023-02-09T03:38:30.546Z,0.00
2023-02-09T03:40:58.163Z,0.00
2023-02-09T03:43:45.577Z,0.10
2023-02-09T03:46:13.097Z,0.10
2023-02-09T03:48:40.679Z,0.20
2023-02-09T03:51:08.227Z,0.10
2023-02-09T03:53:37.013Z,0.50
2023-02-09T03:56:05.462Z,0.20
2023-02-09T03:58:32.879Z,0.30
2023-02-09T04:01:05.843Z,0.30
2023-02-09T04:03:34.388Z,0.30
2023-02-09T04:06:02.308Z,0.30
2023-02-09T04:08:30.069Z,0.30
2023-02-09T04:10:57.981Z,0.30
2023-02-09T04:13:25.743Z,0.30
2023-02-09T04:15:53.722Z,0.30
2023-02-09T04:18:21.314Z,0.20
2023-02-09T04:20:48.763Z,0.20
2023-02-09T04:23:16.457Z,0.20
2023-02-09T04:25:43.959Z,0.20
2023-02-09T04:28:11.427Z,0.20
2023-02-09T04:30:39.247Z,0.30
2023-02-09T04:33:06.616Z,0.30
2023-02-09T04:35:34.038Z,0.40
2023-02-09T04:38:01.473Z,0.40
2023-02-09T04:40:28.897Z,0.40
2023-02-09T04:42:56.405Z,0.50
2023-02-09T04:45:23.881Z,0.70
2023-02-09T04:47:51.322Z,0.50
2023-02-09T04:50:18.870Z,0.50
2023-02-09T04:52:46.341Z,0.50
2023-02-09T04:55:13.860Z,0.50
2023-02-09T04:58:00.356Z,0.50
2023-02-09T05:00:27.900Z,0.50
2023-02-09T05:02:55.495Z,0.50
2023-02-09T05:05:23.314Z,0.40
2023-02-09T05:07:50.867Z,0.40
2023-02-09T05:10:18.634Z,0.40
2023-02-09T05:12:46.251Z,0.40
2023-02-09T05:15:14.770Z,0.30
2023-02-09T05:17:42.298Z,0.40
2023-02-09T05:20:10.501Z,0.40
2023-02-09T05:22:38.334Z,0.40
2023-02-09T05:25:06.112Z,0.40
2023-02-09T05:27:33.593Z,0.40
2023-02-09T05:30:01.055Z,0.40
2023-02-09T05:32:28.530Z,0.60
2023-02-09T05:34:56.147Z,0.60
2023-02-09T05:37:23.598Z,0.50
2023-02-09T05:39:51.417Z,0.50
2023-02-09T05:42:18.874Z,0.70
2023-02-09T05:44:48.542Z,0.70
2023-02-09T05:47:18.289Z,0.80
2023-02-09T05:49:46.082Z,0.80
2023-02-09T05:52:14.816Z,0.80
2023-02-09T05:54:42.498Z,0.90
2023-02-09T05:57:10.415Z,0.90
2023-02-09T05:59:38.345Z,0.80
2023-02-09T06:02:05.879Z,1.10
2023-02-09T06:04:33.684Z,1.10
2023-02-09T06:07:01.195Z,1.20
2023-02-09T06:09:28.831Z,1.30
2023-02-09T06:11:56.317Z,1.40
2023-02-09T06:14:24.037Z,1.50
2023-02-09T06:16:51.538Z,1.70
2023-02-09T06:19:21.190Z,1.80
2023-02-09T06:21:49.205Z,2.00
2023-02-09T06:24:17.126Z,2.00
2023-02-09T06:26:44.693Z,2.10
2023-02-09T06:29:12.965Z,4.00
2023-02-09T06:31:41.882Z,2.40
2023-02-09T06:34:09.829Z,3.50
2023-02-09T06:36:37.455Z,3.50
2023-02-09T06:39:09.371Z,2.70
2023-02-09T06:41:36.993Z,2.80
2023-02-09T06:44:04.871Z,3.10
2023-02-09T06:46:32.307Z,3.00
2023-02-09T06:48:59.766Z,2.90
2023-02-09T06:51:27.426Z,3.10
2023-02-09T06:53:55.004Z,3.20
2023-02-09T06:56:22.822Z,3.60
2023-02-09T06:58:50.253Z,3.40
2023-02-09T07:01:17.742Z,4.40
2023-02-09T07:03:45.416Z,3.40
2023-02-09T07:06:15.816Z,3.40
2023-02-09T07:08:44.813Z,3.50
2023-02-09T07:11:15.407Z,3.60
2023-02-09T07:13:43.205Z,4.30
2023-02-09T07:16:11.735Z,3.70
2023-02-09T07:18:39.777Z,3.80
2023-02-09T07:21:12.864Z,3.70
2023-02-09T07:23:40.322Z,3.70
2023-02-09T07:26:10.838Z,3.70
2023-02-09T07:28:41.635Z,4.60
2023-02-09T07:31:11.662Z,3.80
2023-02-09T07:33:39.669Z,3.80
2023-02-09T07:36:10.112Z,3.90
2023-02-09T07:38:38.539Z,3.90
2023-02-09T07:41:07.714Z,3.90
2023-02-09T07:43:35.118Z,4.00
2023-02-09T07:46:04.453Z,4.00
2023-02-09T07:48:32.594Z,4.10
2023-02-09T07:51:00.876Z,4.10
2023-02-09T07:53:29.252Z,4.10
2023-02-09T07:55:57.298Z,5.60
2023-02-09T07:58:27.028Z,4.10
2023-02-09T08:00:54.672Z,4.20
2023-02-09T08:03:23.893Z,6.60
2023-02-09T08:06:01.909Z,6.20
2023-02-09T08:08:29.432Z,4.30
2023-02-09T08:11:01.626Z,4.20
2023-02-09T08:13:34.078Z,4.10
2023-02-09T08:16:07.681Z,4.30
2023-02-09T08:18:43.818Z,4.30
2023-02-09T08:21:14.541Z,4.80
2023-02-09T08:23:45.961Z,6.70
2023-02-09T08:26:14.705Z,5.80
2023-02-09T08:28:45.005Z,6.90
2023-02-09T08:31:23.868Z,6.40
2023-02-09T08:33:54.687Z,7.20
2023-02-09T08:36:22.568Z,4.50
2023-02-09T08:38:50.321Z,4.60
2023-02-09T08:41:18.524Z,6.30
2023-02-09T08:43:50.276Z,4.40
2023-02-09T08:46:18.545Z,5.60
2023-02-09T08:48:47.194Z,4.50
2023-02-09T08:51:16.478Z,4.10
2023-02-09T08:53:47.764Z,4.70
2023-02-09T08:56:15.506Z,4.70
2023-02-09T08:58:46.081Z,5.20
2023-02-09T09:01:13.766Z,6.70
2023-02-09T09:03:42.289Z,5.10
2023-02-09T09:06:11.967Z,7.10
2023-02-09T09:08:40.242Z,7.70
2023-02-09T09:11:12.857Z,5.30
2023-02-09T09:13:41.780Z,7.30
2023-02-09T09:16:18.108Z,7.30
2023-02-09T09:18:45.940Z,5.70
2023-02-09T09:21:15.920Z,6.70
2023-02-09T09:23:44.559Z,5.10
2023-02-09T09:26:16.585Z,5.10
2023-02-09T09:28:44.522Z,5.00
2023-02-09T09:31:14.642Z,5.50
2023-02-09T09:33:43.021Z,5.00
2023-02-09T09:36:12.376Z,6.90
2023-02-09T09:38:40.903Z,5.10
2023-02-09T09:41:38.532Z,5.20
2023-02-09T09:44:12.487Z,5.50
2023-02-09T09:46:43.809Z,5.20
2023-02-09T09:49:27.167Z,5.10
2023-02-09T09:52:02.645Z,5.20
2023-02-09T09:54:32.298Z,7.60
2023-02-09T09:57:02.531Z,5.10
2023-02-09T09:59:35.126Z,5.20
2023-02-09T10:02:29.111Z,7.20
2023-02-09T10:05:05.395Z,5.20
2023-02-09T10:07:34.632Z,6.90
2023-02-09T10:10:24.750Z,5.70
2023-02-09T10:12:55.658Z,5.40
2023-02-09T10:15:36.557Z,7.70
2023-02-09T10:18:13.525Z,6.00
2023-02-09T10:20:51.264Z,6.00
2023-02-09T10:23:39.115Z,5.70
2023-02-09T10:26:11.820Z,5.80
2023-02-09T10:28:48.875Z,5.70
2023-02-09T10:31:26.861Z,6.20
2023-02-09T10:33:58.550Z,6.20
2023-02-09T10:36:30.497Z,6.20
2023-02-09T10:39:18.379Z,6.20
2023-02-09T10:41:48.973Z,6.30
2023-02-09T10:44:30.347Z,6.40
2023-02-09T10:47:19.000Z,6.50
2023-02-09T10:50:08.705Z,6.60
2023-02-09T10:52:38.890Z,6.60
2023-02-09T10:55:17.444Z,6.60
2023-02-09T10:57:44.957Z,5.90
2023-02-09T11:00:15.427Z,6.60
2023-02-09T11:02:49.948Z,7.50
2023-02-09T11:05:20.482Z,6.60
2023-02-09T11:07:58.782Z,7.90
2023-02-09T11:10:29.330Z,6.50
2023-02-09T11:12:59.925Z,6.40
2023-02-09T11:15:35.863Z,6.30
2023-02-09T11:18:15.765Z,6.30
2023-02-09T11:21:17.902Z,6.50
2023-02-09T11:23:55.974Z,6.70
2023-02-09T11:26:23.736Z,6.90
2023-02-09T11:29:19.318Z,6.70
2023-02-09T11:31:57.997Z,7.30
2023-02-09T11:34:55.817Z,7.50
2023-02-09T11:37:53.093Z,7.60
2023-02-09T11:40:37.964Z,9.40
2023-02-09T11:43:17.418Z,7.80
2023-02-09T11:45:51.087Z,7.80
2023-02-09T11:48:29.094Z,7.60
2023-02-09T11:50:56.425Z,7.40
2023-02-09T11:53:55.357Z,7.30
2023-02-09T11:56:24.993Z,7.20
2023-02-09T11:59:26.716Z,7.10
2023-02-09T12:02:01.927Z,7.00
2023-02-09T12:04:44.841Z,7.00
2023-02-09T12:07:36.234Z,7.00
2023-02-09T12:10:31.937Z,7.00
2023-02-09T12:13:11.406Z,7.00
2023-02-09T12:15:46.533Z,8.70
2023-02-09T12:18:24.728Z,7.50
2023-02-09T12:20:56.141Z,7.00
2023-02-09T12:23:33.901Z,7.80
2023-02-09T12:26:16.748Z,7.00
2023-02-09T12:28:45.520Z,7.10
2023-02-09T12:31:19.732Z,7.50
2023-02-09T12:33:47.409Z,7.20
2023-02-09T12:36:18.166Z,8.90
2023-02-09T12:38:56.046Z,7.60
2023-02-09T12:41:29.096Z,7.70
2023-02-09T12:44:11.199Z,7.30
2023-02-09T12:46:44.719Z,8.90
2023-02-09T12:49:12.190Z,7.30
2023-02-09T12:51:50.290Z,9.50
2023-02-09T12:54:39.291Z,9.00
2023-02-09T12:57:22.325Z,7.60
2023-02-09T13:00:01.593Z,8.00
2023-02-09T13:02:59.628Z,5.70
2023-02-09T13:05:39.138Z,7.90
2023-02-09T13:08:19.336Z,8.40
2023-02-09T13:10:59.627Z,10.20
2023-02-09T13:14:04.685Z,8.40
2023-02-09T13:16:53.228Z,8.50
2023-02-09T13:19:42.365Z,10.20
2023-02-09T13:22:26.064Z,8.30
2023-02-09T13:25:16.552Z,8.30
2023-02-09T13:27:49.531Z,8.40
2023-02-09T13:30:36.032Z,8.40
2023-02-09T13:33:35.941Z,8.80
2023-02-09T13:37:06.107Z,8.70
2023-02-09T13:40:09.206Z,9.10
2023-02-09T13:43:44.181Z,11.00
2023-02-09T13:47:19.479Z,7.20
2023-02-09T13:50:25.661Z,9.60
2023-02-09T13:53:10.637Z,9.60
2023-02-09T13:55:41.384Z,8.60
2023-02-09T13:58:39.537Z,9.60
2023-02-09T14:04:50.317Z,9.30
2023-02-09T14:07:20.635Z,10.30
2023-02-09T14:09:58.071Z,8.80
2023-02-09T14:12:52.952Z,9.00
2023-02-09T14:15:42.899Z,8.70
2023-02-09T14:18:31.017Z,8.70
2023-02-09T14:21:13.321Z,8.80
2023-02-09T14:24:02.399Z,8.80
2023-02-09T14:26:35.333Z,8.90
2023-02-09T14:29:18.253Z,9.00
2023-02-09T14:32:04.023Z,9.20
2023-02-09T14:34:39.344Z,10.00
2023-02-09T14:37:16.030Z,9.90
2023-02-09T14:40:01.191Z,9.80
2023-02-09T14:42:30.138Z,9.90
2023-02-09T14:45:00.693Z,10.10
2023-02-09T14:47:39.160Z,10.30
2023-02-09T14:50:13.270Z,10.40
2023-02-09T14:52:48.211Z,10.50
2023-02-09T14:55:22.441Z,11.00
2023-02-09T14:57:49.999Z,10.60
2023-02-09T15:00:38.899Z,10.50
2023-02-09T15:03:06.596Z,10.40
2023-02-09T15:05:35.672Z,10.30
2023-02-09T15:24:13.469Z,10.90
2023-02-09T15:27:54.588Z,9.60
2023-02-09T15:31:32.186Z,9.50
2023-02-09T15:35:29.564Z,9.70
2023-02-09T15:38:07.152Z,10.80
2023-02-09T15:48:37.315Z,10.00
2023-02-09T15:51:36.692Z,10.80
2023-02-09T15:54:55.521Z,10.20
2023-02-09T16:14:31.530Z,9.10
2023-02-09T16:17:24.910Z,9.10
2023-02-09T16:19:52.353Z,8.60
2023-02-09T16:22:23.492Z,8.40
2023-02-09T16:24:53.549Z,9.70
2023-02-09T16:27:27.872Z,8.70
2023-02-09T16:29:56.349Z,7.90
2023-02-09T16:32:26.888Z,7.80
2023-02-09T16:34:57.722Z,7.70
2023-02-09T16:37:32.346Z,7.40
2023-02-09T16:40:01.610Z,7.50
2023-02-09T16:42:29.662Z,7.40
2023-02-09T16:44:57.532Z,7.40
2023-02-09T16:47:27.556Z,8.60
2023-02-09T16:50:01.096Z,7.20
2023-02-09T16:52:30.280Z,7.10
2023-02-09T16:55:00.815Z,6.60
2023-02-09T16:57:28.896Z,6.90
2023-02-09T16:59:56.641Z,6.80
2023-02-09T17:02:40.798Z,6.90
2023-02-09T17:05:24.250Z,6.60
2023-02-09T17:07:58.127Z,6.50
2023-02-09T17:10:29.821Z,6.50
2023-02-09T17:12:58.217Z,6.40
2023-02-09T17:15:32.034Z,8.20
2023-02-09T17:18:06.158Z,7.70
2023-02-09T17:20:41.583Z,6.40
2023-02-09T17:23:17.894Z,7.90
2023-02-09T17:25:50.809Z,6.70
2023-02-09T17:28:19.230Z,9.30
2023-02-09T17:30:52.765Z,8.40
2023-02-09T17:33:48.584Z,6.30
2023-02-09T17:36:27.024Z,6.30
2023-02-09T17:38:59.538Z,8.50
2023-02-09T17:41:40.754Z,8.30
2023-02-09T17:44:22.301Z,9.30
2023-02-09T17:46:56.655Z,6.60
2023-02-09T17:49:24.256Z,4.50
2023-02-09T17:51:52.885Z,8.70
2023-02-09T17:54:21.631Z,7.90
2023-02-09T17:56:49.508Z,5.60
2023-02-09T17:59:19.703Z,6.90
2023-02-09T18:01:55.113Z,6.90
2023-02-09T18:04:26.858Z,5.30
2023-02-09T18:06:56.694Z,5.00
2023-02-09T18:09:25.236Z,5.30
2023-02-09T18:11:52.634Z,4.90
2023-02-09T18:14:23.044Z,4.90
2023-02-09T18:16:51.939Z,4.80
2023-02-09T18:19:19.455Z,4.70
2023-02-09T18:21:55.501Z,5.40
2023-02-09T18:24:25.093Z,4.60
2023-02-09T18:26:52.672Z,5.40
2023-02-09T18:29:28.998Z,4.40
2023-02-09T18:31:58.699Z,4.50
2023-02-09T18:34:27.057Z,4.70
2023-02-09T18:36:55.025Z,4.60
2023-02-09T18:39:22.640Z,6.00
2023-02-09T18:41:54.471Z,4.60
2023-02-09T18:44:28.800Z,5.20
2023-02-09T18:47:00.321Z,4.60
2023-02-09T18:49:28.245Z,4.80
2023-02-09T18:51:56.989Z,4.60
2023-02-09T18:54:24.462Z,4.50
2023-02-09T18:56:53.589Z,6.60
2023-02-09T18:59:21.327Z,4.60
2023-02-09T19:01:49.932Z,4.50
2023-02-09T19:04:17.477Z,5.50
2023-02-09T19:06:44.911Z,4.60
2023-02-09T19:09:12.400Z,4.70
2023-02-09T19:11:39.930Z,4.70
2023-02-09T19:14:25.974Z,4.70
2023-02-09T19:16:53.565Z,4.40
2023-02-09T19:19:26.087Z,6.40
2023-02-09T19:21:54.448Z,6.40
2023-02-09T19:24:22.089Z,6.60
2023-02-09T19:26:49.958Z,5.60
2023-02-09T19:29:17.493Z,4.40
2023-02-09T19:31:46.451Z,4.50
2023-02-09T19:34:13.911Z,6.00
2023-02-09T19:36:41.432Z,4.40
2023-02-09T19:39:08.974Z,5.70
2023-02-09T19:41:36.551Z,4.80
2023-02-09T19:44:07.146Z,4.00
2023-02-09T19:46:34.660Z,3.80
2023-02-09T19:49:02.330Z,5.20
2023-02-09T19:51:29.975Z,5.30
2023-02-09T19:53:59.901Z,3.60
2023-02-09T19:56:28.131Z,4.30
2023-02-09T19:58:55.622Z,3.40
2023-02-09T20:01:23.229Z,5.10
2023-02-09T20:03:52.295Z,3.50
2023-02-09T20:06:20.049Z,3.40
2023-02-09T20:08:47.538Z,3.40
2023-02-09T20:11:19.741Z,3.40
2023-02-09T20:13:51.314Z,3.40
2023-02-09T20:16:22.256Z,3.30
2023-02-09T20:18:50.847Z,3.30
2023-02-09T20:21:20.137Z,3.50
2023-02-09T20:23:48.276Z,3.20
2023-02-09T20:26:18.576Z,3.20
2023-02-09T20:28:45.999Z,3.10
2023-02-09T20:31:19.760Z,3.10
2023-02-09T20:33:47.436Z,3.00
2023-02-09T20:36:15.020Z,3.00
2023-02-09T20:38:42.666Z,3.30
2023-02-09T20:41:16.364Z,3.00
2023-02-09T20:44:02.905Z,3.90
2023-02-09T20:46:51.009Z,3.20
2023-02-09T20:49:19.005Z,3.20
2023-02-09T20:51:46.846Z,3.90
2023-02-09T20:54:14.876Z,3.40
2023-02-09T20:56:42.691Z,3.40
2023-02-09T20:59:11.043Z,3.40
2023-02-09T21:01:38.913Z,3.50
2023-02-09T21:04:07.424Z,3.50
2023-02-09T21:06:38.487Z,3.40
2023-02-09T21:09:07.849Z,3.40
2023-02-09T21:11:35.512Z,3.30
2023-02-09T21:14:03.176Z,3.20
2023-02-09T21:16:31.291Z,3.10
2023-02-09T21:18:59.181Z,3.00
2023-02-09T21:21:27.375Z,2.90
2023-02-09T21:23:54.890Z,2.80
2023-02-09T21:26:24.422Z,3.30
2023-02-09T21:28:56.579Z,2.60
2023-02-09T21:31:26.696Z,2.80
2023-02-09T21:33:54.294Z,2.40
2023-02-09T21:36:22.028Z,4.20
2023-02-09T21:38:49.564Z,2.30
2023-02-09T21:41:38.439Z,2.30
2023-02-09T21:44:06.917Z,2.30
2023-02-09T21:46:34.744Z,2.90
2023-02-09T21:49:02.359Z,2.30
2023-02-09T21:51:29.842Z,2.30
2023-02-09T21:53:57.729Z,2.30
2023-02-09T21:56:26.057Z,2.20
2023-02-09T21:58:53.465Z,2.20
2023-02-09T22:01:20.969Z,2.20
2023-02-09T22:03:57.007Z,3.80
2023-02-09T22:06:25.968Z,2.10
2023-02-09T22:08:56.755Z,2.00
2023-02-09T22:11:24.317Z,2.10
2023-02-09T22:13:51.731Z,2.10
2023-02-09T22:16:21.998Z,2.20
2023-02-09T22:18:52.050Z,2.20
2023-02-09T22:21:19.575Z,2.30
2023-02-09T22:23:47.066Z,2.30
2023-02-09T22:26:15.211Z,2.30
2023-02-09T22:28:43.161Z,2.30
2023-02-09T22:31:14.151Z,2.30
2023-02-09T22:33:41.727Z,2.10
2023-02-09T22:36:13.300Z,2.20
2023-02-09T22:38:41.112Z,2.10
2023-02-09T22:41:21.278Z,2.00
2023-02-09T22:43:54.865Z,2.00
2023-02-09T22:46:24.825Z,2.00
2023-02-09T22:48:53.852Z,1.90
2023-02-09T22:51:23.553Z,1.80
2023-02-09T22:53:51.281Z,3.20
2023-02-09T22:56:18.814Z,1.70
2023-02-09T22:58:46.629Z,1.70
2023-02-09T23:01:15.100Z,1.60
2023-02-09T23:03:42.624Z,1.60
2023-02-09T23:06:14.690Z,1.50
2023-02-09T23:08:42.760Z,1.50
2023-02-09T23:11:14.667Z,1.40
2023-02-09T23:13:43.326Z,1.40
2023-02-09T23:16:19.820Z,1.40
2023-02-09T23:18:59.918Z,1.30
2023-02-09T23:21:33.593Z,1.30
2023-02-09T23:24:01.525Z,1.20
2023-02-09T23:26:29.442Z,1.10
2023-02-09T23:28:59.712Z,1.10
2023-02-09T23:31:27.902Z,2.10
2023-02-09T23:33:55.851Z,1.10
2023-02-09T23:36:27.688Z,1.10
2023-02-09T23:38:58.538Z,1.10
2023-02-09T23:41:26.911Z,1.10
2023-02-09T23:43:54.557Z,1.10
2023-02-09T23:46:26.673Z,2.30
2023-02-09T23:48:56.423Z,1.20
2023-02-09T23:51:35.088Z,1.10
2023-02-09T23:54:05.727Z,1.10
2023-02-09T23:56:37.118Z,1.00
2023-02-09T23:59:11.269Z,1.00
